Rock Lake, North Dakota
Current Conditions -  °F | °C
As of 10:15 PM on Sunday 25 Jan 2015 (Local Time) from K06D Reporting Station
Broken Clouds Broken Clouds  
Wind Chill: 19°   Ceiling: 10000
Heat Index: 32°   Visibility: 10mi
Dew Point: 32°   Wind: 25mph
Humidity: 100%   Direction: 260°W
Pressure: 29.6"   Gusts: 31mph
Location:  48.8584°N, 99.1311°W
Report Text: K06D 260415Z AUTO 26022G27KT 10SM BKN100 BKN120 00/00 A2960 RMK AO2
Loading
Personal Weather Stations






























Interactive Weather Map New forecast layout! Learn more

10-Day Weather Forecast

Advertisements
Track Severe Weather on mobile